createdAt,value
2022-08-17T00:00:34.618Z,15.98
2022-08-17T00:03:04.594Z,21.65
2022-08-17T00:05:35.753Z,19.97
2022-08-17T00:08:06.135Z,16.42
2022-08-17T00:10:34.954Z,17.52
2022-08-17T00:13:07.759Z,19.05
2022-08-17T00:15:35.880Z,17.90
2022-08-17T00:18:03.977Z,18.73
2022-08-17T00:20:51.972Z,17.50
2022-08-17T00:23:21.263Z,18.60
2022-08-17T00:25:49.367Z,16.52
2022-08-17T00:28:18.228Z,17.77
2022-08-17T00:30:52.935Z,16.63
2022-08-17T00:33:24.191Z,18.77
2022-08-17T00:35:52.439Z,20.33
2022-08-17T00:38:22.886Z,16.73
2022-08-17T00:40:55.985Z,16.98
2022-08-17T00:43:32.948Z,13.63
2022-08-17T00:46:03.214Z,14.05
2022-08-17T00:48:32.086Z,15.05
2022-08-17T00:51:04.198Z,16.70
2022-08-17T00:53:36.653Z,15.48
2022-08-17T00:56:09.004Z,16.20
2022-08-17T00:58:37.832Z,16.08
2022-08-17T01:01:07.888Z,17.00
2022-08-17T01:03:38.458Z,16.85
2022-08-17T01:06:09.088Z,16.80
2022-08-17T01:08:40.576Z,16.05
2022-08-17T01:11:09.572Z,14.95
2022-08-17T01:13:41.780Z,14.35
2022-08-17T01:16:16.692Z,15.47
2022-08-17T01:18:45.701Z,16.85
2022-08-17T01:21:21.332Z,16.52
2022-08-17T01:23:50.715Z,15.80
2022-08-17T01:26:19.185Z,17.42
2022-08-17T01:28:54.181Z,19.67
2022-08-17T01:31:28.830Z,14.23
2022-08-17T01:33:59.463Z,13.73
2022-08-17T01:36:30.526Z,14.88
2022-08-17T01:39:00.136Z,20.20
2022-08-17T01:41:29.372Z,16.08
2022-08-17T01:44:01.489Z,20.15
2022-08-17T01:46:33.420Z,14.20
2022-08-17T01:49:01.916Z,13.57
2022-08-17T01:51:33.262Z,17.65
2022-08-17T01:54:07.589Z,18.08
2022-08-17T01:56:38.158Z,13.88
2022-08-17T01:59:06.427Z,14.57
2022-08-17T02:01:35.839Z,15.18
2022-08-17T02:04:04.634Z,13.43
2022-08-17T02:06:52.813Z,12.80
2022-08-17T02:09:25.702Z,15.35
2022-08-17T02:11:54.765Z,13.52
2022-08-17T02:14:25.824Z,18.02
2022-08-17T02:16:54.743Z,14.32
2022-08-17T02:19:23.597Z,17.13
2022-08-17T02:21:53.565Z,14.93
2022-08-17T02:24:58.933Z,15.15
2022-08-17T02:27:14.490Z,15.43
2022-08-17T02:29:42.529Z,17.05
2022-08-17T02:32:27.372Z,14.10
2022-08-17T02:34:57.147Z,16.08
2022-08-17T02:37:25.563Z,17.02
2022-08-17T02:39:56.951Z,15.48
2022-08-17T02:42:28.595Z,16.83
2022-08-17T02:44:56.648Z,14.77
2022-08-17T02:47:24.632Z,20.30
2022-08-17T02:49:55.499Z,14.43
2022-08-17T02:52:42.487Z,14.32
2022-08-17T02:55:16.288Z,14.68
2022-08-17T02:57:44.611Z,13.50
2022-08-17T03:00:16.192Z,14.90
2022-08-17T03:02:45.623Z,17.65
2022-08-17T03:05:15.774Z,16.05
2022-08-17T03:07:44.206Z,20.15
2022-08-17T03:10:14.236Z,20.67
2022-08-17T03:12:43.331Z,17.67
2022-08-17T03:15:13.915Z,17.33
2022-08-17T03:17:41.988Z,15.98
2022-08-17T03:20:11.405Z,16.13
2022-08-17T03:22:42.942Z,15.35
2022-08-17T03:25:21.445Z,18.98
2022-08-17T03:27:51.422Z,14.75
2022-08-17T03:30:22.389Z,14.50
2022-08-17T03:32:52.893Z,15.40
2022-08-17T03:35:24.159Z,13.85
2022-08-17T03:37:59.995Z,14.70
2022-08-17T03:40:55.728Z,14.10
2022-08-17T03:43:21.089Z,16.92
2022-08-17T03:46:11.031Z,15.88
2022-08-17T03:49:13.059Z,14.32
2022-08-17T03:51:58.434Z,17.60
2022-08-17T03:54:44.342Z,16.23
2022-08-17T03:57:14.153Z,13.98
2022-08-17T03:59:42.539Z,17.08
2022-08-17T04:02:13.470Z,14.13
2022-08-17T04:04:41.796Z,17.48
2022-08-17T04:07:09.851Z,16.50
2022-08-17T04:09:37.892Z,13.18
2022-08-17T04:12:06.620Z,18.02
2022-08-17T04:14:51.900Z,20.67
2022-08-17T04:17:23.157Z,15.02
2022-08-17T04:19:51.123Z,17.77
2022-08-17T04:22:32.421Z,18.05
2022-08-17T04:25:05.120Z,15.55
2022-08-17T04:27:33.122Z,18.80
2022-08-17T04:30:02.945Z,16.67
2022-08-17T04:33:05.192Z,14.52
2022-08-17T04:35:21.449Z,18.83
2022-08-17T04:37:49.638Z,14.38
2022-08-17T04:40:36.146Z,18.73
2022-08-17T04:43:07.068Z,14.85
2022-08-17T04:45:40.142Z,16.92
2022-08-17T04:48:23.321Z,22.23
2022-08-17T04:50:56.152Z,17.48
2022-08-17T04:53:24.090Z,16.00
2022-08-17T04:55:53.245Z,15.57
2022-08-17T04:58:21.724Z,19.40
2022-08-17T05:00:51.192Z,20.60
2022-08-17T05:03:19.190Z,19.63
2022-08-17T05:05:49.434Z,20.38
2022-08-17T05:08:19.243Z,21.33
2022-08-17T05:10:48.404Z,15.23
2022-08-17T05:13:20.605Z,17.83
2022-08-17T05:15:54.874Z,19.33
2022-08-17T05:18:24.641Z,20.90
2022-08-17T05:20:53.621Z,15.57
2022-08-17T05:23:24.395Z,22.33
2022-08-17T05:25:56.353Z,18.38
2022-08-17T05:28:27.559Z,20.10
2022-08-17T05:31:00.342Z,20.52
2022-08-17T05:33:31.118Z,20.98
2022-08-17T05:36:01.193Z,19.75
2022-08-17T05:38:30.460Z,22.15
2022-08-17T05:40:59.270Z,15.52
2022-08-17T05:43:29.497Z,18.92
2022-08-17T05:46:03.929Z,18.83
2022-08-17T05:48:43.660Z,19.45
2022-08-17T05:51:40.245Z,23.80
2022-08-17T05:54:24.666Z,23.38
2022-08-17T05:57:09.161Z,21.77
2022-08-17T05:59:48.540Z,22.40
2022-08-17T06:02:25.679Z,16.85
2022-08-17T06:05:08.935Z,15.85
2022-08-17T06:12:54.763Z,14.15
2022-08-17T06:15:30.945Z,17.77
2022-08-17T06:18:02.982Z,18.42
2022-08-17T06:20:38.083Z,16.67
2022-08-17T06:23:12.013Z,15.60
2022-08-17T06:25:46.587Z,20.45
2022-08-17T06:28:17.969Z,18.23
2022-08-17T06:31:00.338Z,15.60
2022-08-17T06:33:35.134Z,15.38
2022-08-17T06:36:16.013Z,14.65
2022-08-17T06:38:54.403Z,15.40
2022-08-17T06:41:27.550Z,13.77
2022-08-17T06:44:43.692Z,12.20
2022-08-17T06:47:09.002Z,12.65
2022-08-17T06:49:44.938Z,11.05
2022-08-17T06:52:45.355Z,11.32
2022-08-17T06:55:21.275Z,12.20
2022-08-17T06:57:53.621Z,12.00
2022-08-17T07:00:24.473Z,11.48
2022-08-17T07:02:58.515Z,11.85
2022-08-17T07:05:34.967Z,15.40
2022-08-17T07:08:11.577Z,12.25
2022-08-17T07:10:44.826Z,11.90
2022-08-17T07:13:34.853Z,9.23
2022-08-17T07:16:15.066Z,13.00
2022-08-17T07:18:43.784Z,9.27
2022-08-17T07:21:38.496Z,11.57
2022-08-17T07:24:41.945Z,12.40
2022-08-17T07:27:14.110Z,12.00
2022-08-17T07:29:47.838Z,8.63
2022-08-17T07:32:19.513Z,9.05
2022-08-17T07:35:11.430Z,9.88
2022-08-17T07:37:42.623Z,8.15
2022-08-17T07:40:28.125Z,12.10
2022-08-17T07:43:08.080Z,10.45
2022-08-17T07:46:27.413Z,7.40
2022-08-17T07:48:57.595Z,7.83
2022-08-17T07:51:29.163Z,12.05
2022-08-17T07:54:13.932Z,10.23
2022-08-17T07:56:45.982Z,9.82
2022-08-17T07:59:18.083Z,8.65
2022-08-17T08:02:10.243Z,9.88
2022-08-17T08:07:31.873Z,8.38
2022-08-17T08:10:10.923Z,10.70
2022-08-17T08:12:42.191Z,5.57
2022-08-17T08:15:18.646Z,6.40
2022-08-17T08:17:50.477Z,5.50
2022-08-17T08:20:52.563Z,6.10
2022-08-17T08:23:25.588Z,7.60
2022-08-17T08:26:05.250Z,5.07
2022-08-17T08:28:43.403Z,6.13
2022-08-17T08:31:24.480Z,7.15
2022-08-17T08:34:06.916Z,7.18
2022-08-17T08:36:56.857Z,9.48
2022-08-17T08:39:55.100Z,4.88
2022-08-17T08:42:32.938Z,6.70
2022-08-17T08:45:09.467Z,4.07
2022-08-17T08:47:58.056Z,7.03
2022-08-17T08:50:46.591Z,6.20
2022-08-17T08:53:28.619Z,3.75
2022-08-17T08:56:01.356Z,6.90
2022-08-17T08:58:41.270Z,3.70
2022-08-17T09:01:19.353Z,5.35
2022-08-17T09:04:21.478Z,4.72
2022-08-17T09:07:05.010Z,4.82
2022-08-17T09:09:43.779Z,4.25
2022-08-17T09:12:22.390Z,4.25
2022-08-17T09:14:58.851Z,4.30
2022-08-17T09:17:35.564Z,4.00
2022-08-17T09:20:13.741Z,4.60
2022-08-17T09:23:03.958Z,4.72
2022-08-17T09:25:36.319Z,3.55
2022-08-17T09:28:07.610Z,6.33
2022-08-17T09:30:45.474Z,4.28
2022-08-17T09:33:17.609Z,5.40
2022-08-17T09:35:50.845Z,3.90
2022-08-17T09:38:27.074Z,3.67
2022-08-17T09:41:02.913Z,4.68
2022-08-17T09:43:40.051Z,5.30
2022-08-17T09:46:16.972Z,3.08
2022-08-17T09:48:55.268Z,8.60
2022-08-17T09:51:32.601Z,4.50
2022-08-17T09:54:21.010Z,8.55
2022-08-17T09:57:28.148Z,32.92
2022-08-17T10:00:07.999Z,22.98
2022-08-17T10:03:16.360Z,10.43
2022-08-17T10:05:51.272Z,9.77
2022-08-17T10:08:34.743Z,10.65
2022-08-17T10:11:33.597Z,10.52
2022-08-17T10:14:36.757Z,14.02
2022-08-17T10:17:08.870Z,8.43
2022-08-17T10:19:40.232Z,7.57
2022-08-17T10:22:41.907Z,6.43
2022-08-17T10:25:53.574Z,4.53
2022-08-17T10:28:28.723Z,8.65
2022-08-17T10:31:33.241Z,7.18
2022-08-17T10:34:01.592Z,4.43
2022-08-17T10:36:40.929Z,4.88
2022-08-17T10:39:20.882Z,3.17
2022-08-17T10:41:52.784Z,3.55
2022-08-17T10:44:38.902Z,4.30
2022-08-17T10:47:11.631Z,3.30
2022-08-17T10:49:44.229Z,9.73
2022-08-17T10:52:41.936Z,9.70
2022-08-17T10:55:20.349Z,5.93
2022-08-17T10:57:50.669Z,3.83
2022-08-17T11:01:02.328Z,3.42
2022-08-17T11:03:33.205Z,7.15
2022-08-17T11:06:15.971Z,5.40
2022-08-17T11:09:11.788Z,2.33
2022-08-17T11:11:52.834Z,5.28
2022-08-17T11:14:36.019Z,3.28
2022-08-17T11:17:16.261Z,5.05
2022-08-17T11:20:04.581Z,3.67
2022-08-17T11:23:23.868Z,8.63
2022-08-17T11:25:54.825Z,2.28
2022-08-17T11:28:28.035Z,4.43
2022-08-17T11:30:59.372Z,2.78
2022-08-17T11:33:56.441Z,5.83
2022-08-17T11:36:38.712Z,5.35
2022-08-17T11:39:20.314Z,6.83
2022-08-17T11:41:55.827Z,3.85
2022-08-17T11:44:37.736Z,5.07
2022-08-17T11:47:29.943Z,4.53
2022-08-17T11:50:42.548Z,3.35
2022-08-17T11:56:59.949Z,4.03
2022-08-17T11:59:59.473Z,5.40
2022-08-17T12:02:47.462Z,4.68
2022-08-17T12:05:35.150Z,6.50
2022-08-17T12:08:15.169Z,5.90
2022-08-17T12:10:54.165Z,7.15
2022-08-17T12:13:23.740Z,3.75
2022-08-17T12:15:59.975Z,6.28
2022-08-17T12:18:30.377Z,4.00
2022-08-17T12:21:28.546Z,4.10
2022-08-17T12:24:03.275Z,3.80
2022-08-17T12:26:33.942Z,3.28
2022-08-17T12:29:04.394Z,5.85
2022-08-17T12:31:37.147Z,5.32
2022-08-17T12:34:06.480Z,6.53
2022-08-17T12:36:35.064Z,3.95
2022-08-17T12:39:13.697Z,3.72
2022-08-17T12:41:45.109Z,3.17
2022-08-17T12:44:17.706Z,6.10
2022-08-17T12:46:51.320Z,6.32
2022-08-17T12:49:31.664Z,3.75
2022-08-17T12:52:15.785Z,4.53
2022-08-17T12:54:50.972Z,3.85
2022-08-17T12:57:21.757Z,4.32
2022-08-17T12:59:55.493Z,5.32
2022-08-17T13:02:30.948Z,7.13
2022-08-17T13:05:01.964Z,3.97
2022-08-17T13:07:35.526Z,4.78
2022-08-17T13:10:05.138Z,3.92
2022-08-17T13:12:36.631Z,3.13
2022-08-17T13:15:05.177Z,3.40
2022-08-17T13:17:37.059Z,3.10
2022-08-17T13:20:15.690Z,2.80
2022-08-17T13:22:44.505Z,4.30
2022-08-17T13:25:17.818Z,4.82
2022-08-17T13:27:55.360Z,3.65
2022-08-17T13:30:28.049Z,3.42
2022-08-17T13:32:58.600Z,3.40
2022-08-17T13:35:41.154Z,9.50
2022-08-17T13:38:12.343Z,7.95
2022-08-17T13:40:44.338Z,3.90
2022-08-17T13:43:13.204Z,4.65
2022-08-17T13:45:50.794Z,3.88
2022-08-17T13:48:32.074Z,4.30
2022-08-17T13:51:34.534Z,8.77
2022-08-17T13:54:07.360Z,4.05
2022-08-17T13:56:40.739Z,3.30
2022-08-17T13:59:12.359Z,4.03
2022-08-17T14:01:43.052Z,3.33
2022-08-17T14:04:15.675Z,2.83
2022-08-17T14:06:52.612Z,4.78
2022-08-17T14:09:24.966Z,6.18
2022-08-17T14:11:54.051Z,5.28
2022-08-17T14:14:23.214Z,6.30
2022-08-17T14:16:51.604Z,5.60
2022-08-17T14:19:21.781Z,2.90
2022-08-17T14:21:50.354Z,3.58
2022-08-17T14:24:24.039Z,2.22
2022-08-17T14:26:53.343Z,4.43
2022-08-17T14:29:21.722Z,2.72
2022-08-17T14:31:54.256Z,3.75
2022-08-17T14:34:25.446Z,4.97
2022-08-17T14:36:53.535Z,5.47
2022-08-17T14:39:21.956Z,2.92
2022-08-17T14:41:50.194Z,5.93
2022-08-17T14:44:18.284Z,3.78
2022-08-17T14:46:47.966Z,4.20
2022-08-17T14:49:16.142Z,3.72
2022-08-17T14:51:45.472Z,3.95
2022-08-17T14:54:33.076Z,3.10
2022-08-17T14:57:25.744Z,4.22
2022-08-17T14:59:55.217Z,4.55
2022-08-17T15:02:29.375Z,4.10
2022-08-17T15:05:02.733Z,3.45
2022-08-17T15:07:32.331Z,4.40
2022-08-17T15:10:01.343Z,8.80
2022-08-17T15:12:34.627Z,6.75
2022-08-17T15:17:43.920Z,3.80
2022-08-17T15:20:16.418Z,4.32
2022-08-17T15:22:49.728Z,7.00
2022-08-17T15:25:19.853Z,6.85
2022-08-17T15:27:48.054Z,5.45
2022-08-17T15:30:16.257Z,4.97
2022-08-17T15:32:50.786Z,2.60
2022-08-17T15:35:27.416Z,3.17
2022-08-17T15:38:07.984Z,3.47
2022-08-17T15:40:40.854Z,4.30
2022-08-17T15:43:11.263Z,3.08
2022-08-17T15:45:40.513Z,2.80
2022-08-17T15:48:09.108Z,4.38
2022-08-17T15:50:37.319Z,4.57
2022-08-17T15:53:06.840Z,6.10
2022-08-17T15:55:36.590Z,2.92
2022-08-17T15:58:04.749Z,7.47
2022-08-17T16:00:42.015Z,3.55
2022-08-17T16:03:58.108Z,3.60
2022-08-17T16:06:09.091Z,4.78
2022-08-17T16:08:43.665Z,5.75
2022-08-17T16:11:12.816Z,4.80
2022-08-17T16:13:41.724Z,5.28
2022-08-17T16:16:16.082Z,3.53
2022-08-17T16:18:44.418Z,6.43
2022-08-17T16:21:27.192Z,5.38
2022-08-17T16:23:59.484Z,4.75
2022-08-17T16:26:28.362Z,5.40
2022-08-17T16:28:57.517Z,3.95
2022-08-17T16:31:25.873Z,7.85
2022-08-17T16:34:17.603Z,3.38
2022-08-17T16:36:42.612Z,5.43
2022-08-17T16:39:26.113Z,3.35
2022-08-17T16:41:54.802Z,5.28
2022-08-17T16:44:23.363Z,5.68
2022-08-17T16:46:51.490Z,7.43
2022-08-17T16:49:24.507Z,6.05
2022-08-17T16:52:07.661Z,4.68
2022-08-17T16:54:39.200Z,3.22
2022-08-17T16:57:07.122Z,5.75
2022-08-17T16:59:40.925Z,4.40
2022-08-17T17:02:14.860Z,5.15
2022-08-17T17:04:51.108Z,5.28
2022-08-17T17:07:38.817Z,6.05
2022-08-17T17:10:11.724Z,6.20
2022-08-17T17:15:35.525Z,4.85
2022-08-17T17:18:07.274Z,6.15
2022-08-17T17:20:43.704Z,9.57
2022-08-17T17:23:26.111Z,6.93
2022-08-17T17:26:02.558Z,6.63
2022-08-17T17:28:38.553Z,11.27
2022-08-17T17:31:14.151Z,5.40
2022-08-17T17:33:47.767Z,6.63
2022-08-17T17:36:25.237Z,6.72
2022-08-17T17:38:59.166Z,7.10
2022-08-17T17:41:33.814Z,8.77
2022-08-17T17:44:06.123Z,6.95
2022-08-17T17:46:39.503Z,4.55
2022-08-17T17:49:10.133Z,4.75
2022-08-17T17:52:09.454Z,6.05
2022-08-17T17:54:49.641Z,7.47
2022-08-17T17:57:26.766Z,9.98
2022-08-17T18:00:03.161Z,6.45
2022-08-17T18:02:54.568Z,7.63
2022-08-17T18:05:49.739Z,4.25
2022-08-17T18:08:34.291Z,5.28
2022-08-17T18:11:35.125Z,6.55
2022-08-17T18:14:17.275Z,6.38
2022-08-17T18:16:48.023Z,6.18
2022-08-17T18:19:20.058Z,6.95
2022-08-17T18:21:53.188Z,5.22
2022-08-17T18:24:31.964Z,9.02
2022-08-17T18:27:01.329Z,5.60
2022-08-17T18:29:38.509Z,7.32
2022-08-17T18:32:20.230Z,6.35
2022-08-17T18:34:51.807Z,7.85
2022-08-17T18:37:42.759Z,5.57
2022-08-17T18:40:37.986Z,6.15
2022-08-17T18:43:13.360Z,7.32
2022-08-17T18:45:47.356Z,6.43
2022-08-17T18:48:23.075Z,12.60
2022-08-17T18:50:53.330Z,10.32
2022-08-17T18:53:34.153Z,9.18
2022-08-17T18:56:26.690Z,7.78
2022-08-17T18:59:04.766Z,7.82
2022-08-17T19:01:53.519Z,10.65
2022-08-17T19:04:34.832Z,8.95
2022-08-17T19:07:06.666Z,7.13
2022-08-17T19:09:37.731Z,8.27
2022-08-17T19:12:11.446Z,6.55
2022-08-17T19:14:39.655Z,6.45
2022-08-17T19:17:15.057Z,6.78
2022-08-17T19:19:50.578Z,9.43
2022-08-17T19:22:30.650Z,11.45
2022-08-17T19:25:12.543Z,8.20
2022-08-17T19:27:51.481Z,8.68
2022-08-17T19:30:26.121Z,7.20
2022-08-17T19:32:57.689Z,10.82
2022-08-17T19:35:34.727Z,7.68
2022-08-17T19:38:12.689Z,12.68
2022-08-17T19:40:59.129Z,7.57
2022-08-17T19:43:39.425Z,8.32
2022-08-17T19:46:16.242Z,12.00
2022-08-17T19:48:53.407Z,8.98
2022-08-17T19:51:28.567Z,7.57
2022-08-17T19:54:06.682Z,12.43
2022-08-17T19:56:43.479Z,7.40
2022-08-17T19:59:21.086Z,10.55
2022-08-17T20:01:54.012Z,9.00
2022-08-17T20:04:41.682Z,9.32
2022-08-17T20:07:17.671Z,9.98
2022-08-17T20:09:51.484Z,7.95
2022-08-17T20:12:22.813Z,9.77
2022-08-17T20:14:57.207Z,10.80
2022-08-17T20:17:28.624Z,7.35
2022-08-17T20:20:06.438Z,8.55
2022-08-17T20:22:51.856Z,14.52
2022-08-17T20:25:30.257Z,8.38
2022-08-17T20:28:06.637Z,10.05
2022-08-17T20:30:38.495Z,6.82
2022-08-17T20:33:13.187Z,7.43
2022-08-17T20:36:03.124Z,9.48
2022-08-17T20:38:48.873Z,10.52
2022-08-17T20:41:20.816Z,6.90
2022-08-17T20:44:06.350Z,7.85
2022-08-17T20:46:52.852Z,7.70
2022-08-17T20:49:27.827Z,7.05
2022-08-17T20:52:02.842Z,9.02
2022-08-17T20:54:50.403Z,11.18
2022-08-17T20:57:49.547Z,7.00
2022-08-17T21:00:46.324Z,8.82
2022-08-17T21:03:50.496Z,11.50
2022-08-17T21:06:23.008Z,9.70
2022-08-17T21:08:57.584Z,7.72
2022-08-17T21:12:04.409Z,9.07
2022-08-17T21:14:56.188Z,10.50
2022-08-17T21:17:44.670Z,7.45
2022-08-17T21:20:35.185Z,9.13
2022-08-17T21:23:17.150Z,9.82
2022-08-17T21:26:12.844Z,11.98
2022-08-17T21:29:00.530Z,7.07
2022-08-17T21:31:35.770Z,8.73
2022-08-17T21:34:27.027Z,9.27
2022-08-17T21:36:56.616Z,10.90
2022-08-17T21:39:33.097Z,9.63
2022-08-17T21:42:03.471Z,9.32
2022-08-17T21:44:34.887Z,12.05
2022-08-17T21:47:20.272Z,9.30
2022-08-17T21:49:48.334Z,8.18
2022-08-17T21:52:18.992Z,9.48
2022-08-17T21:54:52.225Z,8.85
2022-08-17T21:57:26.510Z,8.80
2022-08-17T21:59:57.327Z,9.65
2022-08-17T22:02:27.951Z,8.90
2022-08-17T22:05:02.911Z,10.35
2022-08-17T22:07:42.079Z,8.85
2022-08-17T22:10:30.495Z,7.70
2022-08-17T22:13:17.008Z,9.50
2022-08-17T22:15:47.136Z,7.47
2022-08-17T22:18:20.447Z,9.60
2022-08-17T22:20:51.582Z,10.27
2022-08-17T22:23:43.557Z,8.60
2022-08-17T22:26:14.507Z,16.27
2022-08-17T22:28:47.515Z,8.55
2022-08-17T22:31:17.781Z,7.43
2022-08-17T22:33:47.994Z,9.75
2022-08-17T22:36:29.529Z,10.18
2022-08-17T22:38:59.364Z,10.40
2022-08-17T22:41:43.793Z,11.18
2022-08-17T22:44:27.157Z,8.68
2022-08-17T22:49:33.220Z,8.75
2022-08-17T22:52:04.173Z,7.57
2022-08-17T22:54:49.833Z,7.47
2022-08-17T22:57:51.455Z,10.90
2022-08-17T23:00:34.554Z,8.00
2022-08-17T23:03:12.877Z,9.90
2022-08-17T23:05:43.568Z,9.00
2022-08-17T23:08:12.920Z,9.27
2022-08-17T23:10:41.932Z,8.60
2022-08-17T23:13:12.151Z,8.13
2022-08-17T23:15:43.097Z,12.38
2022-08-17T23:18:11.640Z,9.85
2022-08-17T23:20:41.891Z,12.30
2022-08-17T23:23:15.169Z,8.63
2022-08-17T23:25:46.440Z,10.02
2022-08-17T23:28:14.619Z,7.68
2022-08-17T23:30:46.615Z,8.60
2022-08-17T23:33:20.230Z,13.15
2022-08-17T23:35:48.735Z,11.00
2022-08-17T23:38:16.715Z,10.23
2022-08-17T23:40:44.943Z,10.07
2022-08-17T23:43:23.581Z,10.13
2022-08-17T23:45:55.482Z,7.50
2022-08-17T23:48:35.073Z,7.95
2022-08-17T23:51:09.016Z,9.07
2022-08-17T23:53:40.257Z,10.32
2022-08-17T23:56:11.278Z,9.45
2022-08-17T23:58:42.218Z,11.25
